createdAt,value
2016-11-22T00:00:37.352Z,94.27
2016-11-22T00:01:17.972Z,94.84
2016-11-22T00:01:58.667Z,93.7
2016-11-22T00:02:39.290Z,93.51
2016-11-22T00:03:19.981Z,93.98
2016-11-22T00:04:00.613Z,93.88
2016-11-22T00:04:41.251Z,94.46
2016-11-22T00:05:21.857Z,95.03
2016-11-22T00:06:02.494Z,94.07
2016-11-22T00:06:43.143Z,93.02
2016-11-22T00:07:23.757Z,91.98
2016-11-22T00:08:04.412Z,91.69
2016-11-22T00:08:45.066Z,91.31
2016-11-22T00:09:25.682Z,91.41
2016-11-22T00:10:06.294Z,90.93
2016-11-22T00:10:46.975Z,91.6
2016-11-22T00:11:27.656Z,92.17
2016-11-22T00:12:08.279Z,90.83
2016-11-22T00:12:48.990Z,92.36
2016-11-22T00:13:29.668Z,91.88
2016-11-22T00:14:10.338Z,91.69
2016-11-22T00:14:50.996Z,91.5
2016-11-22T00:15:31.608Z,91.98
2016-11-22T00:16:12.263Z,92.07
2016-11-22T00:16:52.865Z,92.36
2016-11-22T00:17:33.493Z,92.65
2016-11-22T00:18:14.135Z,92.55
2016-11-22T00:18:54.747Z,92.5
2016-11-22T00:19:35.356Z,93.08
2016-11-22T00:20:16.039Z,92.36
2016-11-22T00:20:56.651Z,91.78
2016-11-22T00:21:37.343Z,92.17
2016-11-22T00:22:17.991Z,92.17
2016-11-22T00:22:58.705Z,92.79
2016-11-22T00:23:39.306Z,92.36
2016-11-22T00:24:19.899Z,91.41
2016-11-22T00:25:00.520Z,90.36
2016-11-22T00:25:41.186Z,92.07
2016-11-22T00:26:21.783Z,92.46
2016-11-22T00:27:02.432Z,92.26
2016-11-22T00:27:43.092Z,92.22
2016-11-22T00:28:23.836Z,91.41
2016-11-22T00:29:04.458Z,90.83
2016-11-22T00:29:45.066Z,92.46
2016-11-22T00:30:25.660Z,92.17
2016-11-22T00:31:06.254Z,91.98
2016-11-22T00:31:46.904Z,91.6
2016-11-22T00:32:27.557Z,91.98
2016-11-22T00:33:08.183Z,90.73
2016-11-22T00:33:48.837Z,90.17
2016-11-22T00:34:29.397Z,89.21
2016-11-22T00:35:09.999Z,89.78
2016-11-22T00:35:50.717Z,91.78
2016-11-22T00:36:31.313Z,91.69
2016-11-22T00:37:11.967Z,91.02
2016-11-22T00:37:52.636Z,90.26
2016-11-22T00:38:33.351Z,89.69
2016-11-22T00:39:14.015Z,89.12
2016-11-22T00:39:54.666Z,88.35
2016-11-22T00:40:35.369Z,87.87
2016-11-22T00:41:15.933Z,87.4
2016-11-22T00:41:56.633Z,87.87
2016-11-22T00:42:37.254Z,89.78
2016-11-22T00:43:17.902Z,88.83
2016-11-22T00:43:58.558Z,88.45
2016-11-22T00:44:39.440Z,88.16
2016-11-22T00:45:20.124Z,86.92
2016-11-22T00:46:00.828Z,86.63
2016-11-22T00:46:41.426Z,86.54
2016-11-22T00:47:22.099Z,88.64
2016-11-22T00:48:02.699Z,88.07
2016-11-22T00:48:43.406Z,86.54
2016-11-22T00:49:24.038Z,85.49
2016-11-22T00:50:04.634Z,85.49
2016-11-22T00:50:45.280Z,84.63
2016-11-22T00:51:25.923Z,85.77
2016-11-22T00:52:06.599Z,86.35
2016-11-22T00:52:47.141Z,86.06
2016-11-22T00:53:27.710Z,85.87
2016-11-22T00:54:08.372Z,84.63
2016-11-22T00:54:49.074Z,84.25
2016-11-22T00:55:29.660Z,84.34
2016-11-22T00:56:10.452Z,85.68
2016-11-22T00:56:51.170Z,84.53
2016-11-22T00:57:31.798Z,84.34
2016-11-22T00:58:12.440Z,84.16
2016-11-22T00:58:53.690Z,83.01
2016-11-22T00:59:34.304Z,82.95
2016-11-22T01:00:14.939Z,83.01
2016-11-22T01:00:55.540Z,82.57
2016-11-22T01:01:36.139Z,83.43
2016-11-22T01:02:16.834Z,84.92
2016-11-22T01:02:57.463Z,86.06
2016-11-22T01:03:38.240Z,85.39
2016-11-22T01:04:18.926Z,84.82
2016-11-22T01:04:59.497Z,85.11
2016-11-22T01:05:40.123Z,85.77
2016-11-22T01:06:20.779Z,86.06
2016-11-22T01:07:01.376Z,86.73
2016-11-22T01:07:42.017Z,86.92
2016-11-22T01:08:22.654Z,87.3
2016-11-22T01:09:03.225Z,86.82
2016-11-22T01:09:43.946Z,87.21
2016-11-22T01:10:24.517Z,86.35
2016-11-22T01:11:05.129Z,86.63
2016-11-22T01:11:45.755Z,86.82
2016-11-22T01:12:26.364Z,87.21
2016-11-22T01:13:07.073Z,86.63
2016-11-22T01:13:47.741Z,87.21
2016-11-22T01:14:28.397Z,87.68
2016-11-22T01:15:09.031Z,86.44
2016-11-22T01:15:49.625Z,86.16
2016-11-22T01:16:30.219Z,87.11
2016-11-22T01:17:10.843Z,85.68
2016-11-22T01:17:51.452Z,84.53
2016-11-22T01:18:32.007Z,86.54
2016-11-22T01:19:12.631Z,86.54
2016-11-22T01:19:53.211Z,87.02
2016-11-22T01:20:33.948Z,86.44
2016-11-22T01:21:14.652Z,86.06
2016-11-22T01:21:55.217Z,85.87
2016-11-22T01:22:35.872Z,85.11
2016-11-22T01:23:16.620Z,85.87
2016-11-22T01:23:57.334Z,86.16
2016-11-22T01:24:37.926Z,87.21
2016-11-22T01:25:18.559Z,85.87
2016-11-22T01:25:59.216Z,84.72
2016-11-22T01:26:39.899Z,84.92
2016-11-22T01:27:20.583Z,84.92
2016-11-22T01:28:01.197Z,84.06
2016-11-22T01:28:41.922Z,83.01
2016-11-22T01:29:22.605Z,83.11
2016-11-22T01:30:03.208Z,83.2
2016-11-22T01:30:44.590Z,82.91
2016-11-22T01:31:25.138Z,82.57
2016-11-22T01:32:05.796Z,82.15
2016-11-22T01:32:46.525Z,82.53
2016-11-22T01:33:27.112Z,83.2
2016-11-22T01:34:07.736Z,82.24
2016-11-22T01:34:49.315Z,82.43
2016-11-22T01:35:29.955Z,81.52
2016-11-22T01:36:10.573Z,81.58
2016-11-22T01:36:51.260Z,81.86
2016-11-22T01:37:31.921Z,82.09
2016-11-22T01:38:12.484Z,81.48
2016-11-22T01:38:53.194Z,83.58
2016-11-22T01:39:33.785Z,82.15
2016-11-22T01:40:14.462Z,82.43
2016-11-22T01:40:55.029Z,81.71
2016-11-22T01:41:35.591Z,80.09
2016-11-22T01:42:16.155Z,81.71
2016-11-22T01:42:56.766Z,81.43
2016-11-22T01:43:37.390Z,82.15
2016-11-22T01:44:18.055Z,81.48
2016-11-22T01:44:58.654Z,80.66
2016-11-22T01:45:39.888Z,81.43
2016-11-22T01:46:19.784Z,80.53
2016-11-22T01:47:00.388Z,79.9
2016-11-22T01:47:41.024Z,79.9
2016-11-22T01:48:21.622Z,80.38
2016-11-22T01:49:02.271Z,81.58
2016-11-22T01:49:42.940Z,82.15
2016-11-22T01:50:23.532Z,82.24
2016-11-22T01:51:04.103Z,81.96
2016-11-22T01:51:44.730Z,82.24
2016-11-22T01:52:25.318Z,81.29
2016-11-22T01:53:05.882Z,81.2
2016-11-22T01:53:46.436Z,80.47
2016-11-22T01:54:27.047Z,81.58
2016-11-22T01:55:07.591Z,81.77
2016-11-22T01:55:48.213Z,81.58
2016-11-22T01:56:28.893Z,80.15
2016-11-22T01:57:09.457Z,80.95
2016-11-22T01:57:50.009Z,82.43
2016-11-22T01:58:30.757Z,81.58
2016-11-22T01:59:11.450Z,81.29
2016-11-22T01:59:52.101Z,81.77
2016-11-22T02:00:32.725Z,81.2
2016-11-22T02:01:13.474Z,81.58
2016-11-22T02:01:54.098Z,81.86
2016-11-22T02:02:34.744Z,81.77
2016-11-22T02:03:15.422Z,83.2
2016-11-22T02:03:56.020Z,82.24
2016-11-22T02:04:36.676Z,81.58
2016-11-22T02:05:17.308Z,81.48
2016-11-22T02:05:57.951Z,81.1
2016-11-22T02:06:38.607Z,81.38
2016-11-22T02:07:19.183Z,81.86
2016-11-22T02:07:59.770Z,82.53
2016-11-22T02:08:40.469Z,81.96
2016-11-22T02:09:21.061Z,81.86
2016-11-22T02:10:01.731Z,81.58
2016-11-22T02:10:42.457Z,80.91
2016-11-22T02:11:23.111Z,80.33
2016-11-22T02:12:03.708Z,80.24
2016-11-22T02:12:44.425Z,81.1
2016-11-22T02:13:25.152Z,81.29
2016-11-22T02:14:05.702Z,80.62
2016-11-22T02:14:46.264Z,81.2
2016-11-22T02:15:26.848Z,81.86
2016-11-22T02:16:07.644Z,81.1
2016-11-22T02:16:48.311Z,81.29
2016-11-22T02:17:28.879Z,81.48
2016-11-22T02:18:09.455Z,81.48
2016-11-22T02:18:50.079Z,82.34
2016-11-22T02:19:30.634Z,80.53
2016-11-22T02:20:11.264Z,81.77
2016-11-22T02:20:51.907Z,80.24
2016-11-22T02:21:32.587Z,79.19
2016-11-22T02:22:13.308Z,79.28
2016-11-22T02:22:53.979Z,80.62
2016-11-22T02:23:34.543Z,81.86
2016-11-22T02:24:15.203Z,80.72
2016-11-22T02:24:55.824Z,81.1
2016-11-22T02:25:36.470Z,81.77
2016-11-22T02:26:17.128Z,79.28
2016-11-22T02:26:57.798Z,81.38
2016-11-22T02:27:38.388Z,82.24
2016-11-22T02:28:19.070Z,81.29
2016-11-22T02:28:59.659Z,80.62
2016-11-22T02:29:40.235Z,79.77
2016-11-22T02:30:21.021Z,80.91
2016-11-22T02:31:01.617Z,81.58
2016-11-22T02:31:42.340Z,80.53
2016-11-22T02:32:22.910Z,79.77
2016-11-22T02:33:03.646Z,79.86
2016-11-22T02:33:44.288Z,80.91
2016-11-22T02:34:24.853Z,80.53
2016-11-22T02:35:05.425Z,80.43
2016-11-22T02:35:46.038Z,79.77
2016-11-22T02:36:26.699Z,79.96
2016-11-22T02:37:07.295Z,80.53
2016-11-22T02:37:47.887Z,80.15
2016-11-22T02:38:28.529Z,79.77
2016-11-22T02:39:09.113Z,81.1
2016-11-22T02:39:49.740Z,80.33
2016-11-22T02:40:30.410Z,81.01
2016-11-22T02:41:11.021Z,82.34
2016-11-22T02:41:51.630Z,82.24
2016-11-22T02:42:32.227Z,81.29
2016-11-22T02:43:12.843Z,80.43
2016-11-22T02:43:53.426Z,81.2
2016-11-22T02:44:34.885Z,80.43
2016-11-22T02:45:14.657Z,80.81
2016-11-22T02:45:55.308Z,80.15
2016-11-22T02:46:35.879Z,79.48
2016-11-22T02:47:16.583Z,78.62
2016-11-22T02:47:57.221Z,79.38
2016-11-22T02:48:37.867Z,79.48
2016-11-22T02:49:18.567Z,77.76
2016-11-22T02:49:59.285Z,79.48
2016-11-22T02:50:39.885Z,77.95
2016-11-22T02:51:20.513Z,78.05
2016-11-22T02:52:01.147Z,77.57
2016-11-22T02:52:41.784Z,77.86
2016-11-22T02:53:22.457Z,77.47
2016-11-22T02:54:03.275Z,78.72
2016-11-22T02:54:43.895Z,79.38
2016-11-22T02:55:24.491Z,79.1
2016-11-22T02:56:05.087Z,78.62
2016-11-22T02:56:45.714Z,78.23
2016-11-22T02:57:26.420Z,78.62
2016-11-22T02:58:06.993Z,78.43
2016-11-22T02:58:47.717Z,78.81
2016-11-22T02:59:28.412Z,78.62
2016-11-22T03:00:09.072Z,79.57
2016-11-22T03:00:49.741Z,79.57
2016-11-22T03:01:30.398Z,78.91
2016-11-22T03:02:11.020Z,79.28
2016-11-22T03:02:51.618Z,79.19
2016-11-22T03:03:32.348Z,79.48
2016-11-22T03:04:13.014Z,79.1
2016-11-22T03:04:53.647Z,79
2016-11-22T03:05:34.287Z,78.14
2016-11-22T03:06:14.970Z,77.19
2016-11-22T03:06:55.572Z,77.09
2016-11-22T03:07:36.195Z,76.23
2016-11-22T03:08:16.857Z,76.33
2016-11-22T03:08:57.486Z,77.57
2016-11-22T03:09:38.085Z,76.81
2016-11-22T03:10:18.834Z,75.85
2016-11-22T03:10:59.428Z,76.81
2016-11-22T03:11:40.099Z,76.04
2016-11-22T03:12:20.727Z,74.74
2016-11-22T03:13:01.317Z,74.93
2016-11-22T03:13:42.023Z,74.65
2016-11-22T03:14:22.642Z,75.79
2016-11-22T03:15:03.275Z,74.55
2016-11-22T03:15:43.951Z,75.51
2016-11-22T03:16:24.505Z,74.93
2016-11-22T03:17:05.068Z,74.37
2016-11-22T03:17:45.656Z,74.93
2016-11-22T03:18:26.222Z,75.37
2016-11-22T03:19:06.900Z,75.6
2016-11-22T03:19:47.545Z,75.37
2016-11-22T03:20:28.154Z,76.14
2016-11-22T03:21:08.780Z,76.71
2016-11-22T03:21:49.395Z,77
2016-11-22T03:22:30.098Z,77
2016-11-22T03:23:10.735Z,76.04
2016-11-22T03:23:51.321Z,76.71
2016-11-22T03:24:32.045Z,77.19
2016-11-22T03:25:12.661Z,77
2016-11-22T03:25:53.357Z,78.52
2016-11-22T03:26:33.904Z,77.47
2016-11-22T03:27:14.502Z,75.51
2016-11-22T03:27:55.193Z,75.85
2016-11-22T03:28:35.921Z,75.85
2016-11-22T03:29:16.661Z,75.66
2016-11-22T03:29:57.328Z,75.95
2016-11-22T03:30:38.883Z,75.47
2016-11-22T03:31:19.507Z,75.13
2016-11-22T03:32:00.148Z,75.03
2016-11-22T03:32:40.778Z,75.09
2016-11-22T03:33:21.318Z,74.84
2016-11-22T03:34:01.962Z,75.6
2016-11-22T03:34:42.619Z,75.57
2016-11-22T03:35:23.195Z,75.42
2016-11-22T03:36:03.788Z,75.42
2016-11-22T03:36:44.492Z,74.93
2016-11-22T03:37:25.077Z,75.47
2016-11-22T03:38:05.684Z,75.89
2016-11-22T03:38:46.376Z,75.76
2016-11-22T03:39:27.104Z,75.6
2016-11-22T03:40:07.826Z,75.95
2016-11-22T03:40:48.415Z,74.8
2016-11-22T03:41:29.048Z,75.37
2016-11-22T03:42:09.669Z,75.09
2016-11-22T03:42:50.273Z,74.93
2016-11-22T03:43:30.865Z,75.13
2016-11-22T03:44:11.576Z,75.28
2016-11-22T03:44:52.160Z,75.18
2016-11-22T03:45:32.769Z,75.47
2016-11-22T03:46:13.444Z,75.37
2016-11-22T03:46:54.079Z,75.42
2016-11-22T03:47:34.681Z,75.47
2016-11-22T03:48:15.231Z,75.66
2016-11-22T03:48:55.810Z,76.14
2016-11-22T03:49:36.523Z,75.66
2016-11-22T03:50:17.142Z,74.9
2016-11-22T03:50:57.817Z,74.74
2016-11-22T03:51:38.447Z,74.74
2016-11-22T03:52:19.069Z,74.27
2016-11-22T03:52:59.739Z,74.74
2016-11-22T03:53:40.393Z,74.93
2016-11-22T03:54:20.909Z,74.9
2016-11-22T03:55:01.567Z,75.09
2016-11-22T03:55:42.201Z,75.32
2016-11-22T03:56:22.859Z,76.04
2016-11-22T03:57:03.457Z,76.14
2016-11-22T03:57:44.053Z,76.62
2016-11-22T03:58:24.697Z,77.86
2016-11-22T03:59:05.322Z,77.28
2016-11-22T03:59:45.927Z,76.04
2016-11-22T04:00:26.570Z,76.33
2016-11-22T04:01:07.168Z,77.09
2016-11-22T04:01:47.718Z,75.85
2016-11-22T04:02:28.357Z,75.57
2016-11-22T04:03:08.968Z,76.42
2016-11-22T04:03:49.652Z,76.23
2016-11-22T04:04:30.233Z,75.76
2016-11-22T04:05:10.889Z,75.89
2016-11-22T04:05:51.500Z,75.66
2016-11-22T04:06:32.113Z,75.18
2016-11-22T04:07:12.874Z,75.47
2016-11-22T04:07:53.587Z,75.28
2016-11-22T04:08:34.226Z,75.57
2016-11-22T04:09:15.418Z,74.9
2016-11-22T04:09:56.110Z,74.32
2016-11-22T04:10:36.791Z,74.42
2016-11-22T04:11:17.482Z,74.99
2016-11-22T04:11:58.105Z,75.47
2016-11-22T04:12:38.749Z,76.62
2016-11-22T04:13:19.453Z,74.99
2016-11-22T04:14:00.105Z,75.03
2016-11-22T04:14:40.772Z,75.22
2016-11-22T04:15:21.343Z,75.18
2016-11-22T04:16:02.007Z,75.66
2016-11-22T04:16:42.631Z,76.14
2016-11-22T04:17:23.249Z,75.95
2016-11-22T04:18:03.905Z,75.18
2016-11-22T04:18:44.566Z,74.8
2016-11-22T04:19:25.167Z,75.57
2016-11-22T04:20:05.754Z,76.81
2016-11-22T04:20:46.473Z,76.71
2016-11-22T04:21:27.148Z,75.57
2016-11-22T04:22:07.807Z,75.76
2016-11-22T04:22:48.422Z,75.28
2016-11-22T04:23:28.992Z,75.66
2016-11-22T04:24:09.630Z,76.04
2016-11-22T04:24:50.214Z,75.57
2016-11-22T04:25:30.798Z,75.47
2016-11-22T04:26:11.410Z,75.66
2016-11-22T04:26:52.019Z,75.57
2016-11-22T04:27:32.609Z,76.14
2016-11-22T04:28:13.250Z,75.57
2016-11-22T04:28:53.881Z,76.42
2016-11-22T04:29:34.601Z,77
2016-11-22T04:30:15.245Z,75.66
2016-11-22T04:30:55.926Z,75.66
2016-11-22T04:31:36.604Z,76.23
2016-11-22T04:32:17.238Z,74.99
2016-11-22T04:32:57.879Z,75.57
2016-11-22T04:33:38.545Z,76.14
2016-11-22T04:34:19.190Z,75.57
2016-11-22T04:34:59.796Z,74.61
2016-11-22T04:35:40.394Z,75.66
2016-11-22T04:36:21.050Z,75.28
2016-11-22T04:37:01.716Z,75.76
2016-11-22T04:37:42.348Z,75.57
2016-11-22T04:38:22.980Z,75.57
2016-11-22T04:39:03.692Z,76.81
2016-11-22T04:39:44.303Z,76.23
2016-11-22T04:40:25.004Z,75.76
2016-11-22T04:41:05.659Z,75.76
2016-11-22T04:41:46.332Z,76.52
2016-11-22T04:42:26.913Z,76.23
2016-11-22T04:43:07.538Z,76.33
2016-11-22T04:43:48.244Z,76.62
2016-11-22T04:44:28.951Z,77.47
2016-11-22T04:45:09.506Z,78.33
2016-11-22T04:45:50.140Z,77.57
2016-11-22T04:46:30.816Z,78.58
2016-11-22T04:47:11.519Z,78.3
2016-11-22T04:47:52.082Z,77.86
2016-11-22T04:48:32.892Z,78.49
2016-11-22T04:49:13.466Z,79.28
2016-11-22T04:49:54.052Z,78.14
2016-11-22T04:50:34.634Z,78.72
2016-11-22T04:51:15.228Z,77.76
2016-11-22T04:51:55.828Z,78.23
2016-11-22T04:52:36.522Z,78.62
2016-11-22T04:53:17.150Z,78.72
2016-11-22T04:53:57.710Z,78.49
2016-11-22T04:54:38.364Z,78.86
2016-11-22T04:55:19.050Z,78.14
2016-11-22T04:55:59.682Z,78.14
2016-11-22T04:56:40.244Z,78.72
2016-11-22T04:57:20.838Z,77.67
2016-11-22T04:58:01.453Z,78.52
2016-11-22T04:58:42.198Z,77.95
2016-11-22T04:59:22.879Z,78.14
2016-11-22T05:00:04.478Z,78.91
2016-11-22T05:00:45.161Z,78.3
2016-11-22T05:01:25.776Z,78.67
2016-11-22T05:02:06.502Z,78.96
2016-11-22T05:02:47.080Z,79.77
2016-11-22T05:03:27.704Z,78.96
2016-11-22T05:04:08.324Z,78.67
2016-11-22T05:04:48.934Z,79.1
2016-11-22T05:05:29.537Z,77.67
2016-11-22T05:06:10.095Z,77.38
2016-11-22T05:06:50.774Z,76.62
2016-11-22T05:07:31.425Z,77.19
2016-11-22T05:08:12.069Z,77.09
2016-11-22T05:08:52.744Z,77.19
2016-11-22T05:09:33.385Z,78.14
2016-11-22T05:10:14.007Z,77.19
2016-11-22T05:10:54.663Z,77
2016-11-22T05:11:35.287Z,76.33
2016-11-22T05:12:15.912Z,76.81
2016-11-22T05:12:56.535Z,76.71
2016-11-22T05:13:37.173Z,77
2016-11-22T05:14:17.805Z,77.19
2016-11-22T05:14:58.465Z,78.62
2016-11-22T05:15:39.083Z,77.09
2016-11-22T05:16:19.661Z,78.14
2016-11-22T05:17:00.448Z,77.67
2016-11-22T05:17:41.037Z,76.71
2016-11-22T05:18:21.624Z,77.09
2016-11-22T05:19:02.351Z,76.9
2016-11-22T05:19:42.993Z,77.19
2016-11-22T05:20:23.588Z,77
2016-11-22T05:21:04.289Z,77
2016-11-22T05:21:44.944Z,77.67
2016-11-22T05:22:25.529Z,77.72
2016-11-22T05:23:06.308Z,77.38
2016-11-22T05:23:46.913Z,77.19
2016-11-22T05:24:27.657Z,76.81
2016-11-22T05:25:09.105Z,76.42
2016-11-22T05:25:49.745Z,76.52
2016-11-22T05:26:30.327Z,76.04
2016-11-22T05:27:10.962Z,76.33
2016-11-22T05:27:51.591Z,75.95
2016-11-22T05:28:32.249Z,76.62
2016-11-22T05:29:12.965Z,76.52
2016-11-22T05:29:53.696Z,76.14
2016-11-22T05:30:34.304Z,76.9
2016-11-22T05:31:14.918Z,76.42
2016-11-22T05:31:55.496Z,76.23
2016-11-22T05:32:36.126Z,76.33
2016-11-22T05:33:16.785Z,76.23
2016-11-22T10:40:35.186Z,68.04
2016-11-22T10:41:15.908Z,68.41
2016-11-22T10:41:56.524Z,68.32
2016-11-22T10:42:37.113Z,68.23
2016-11-22T10:43:17.653Z,68.23
2016-11-22T10:43:58.338Z,68.32
2016-11-22T10:44:39.010Z,67.21
2016-11-22T10:45:19.770Z,66.99
2016-11-22T10:46:00.341Z,66.99
2016-11-22T10:46:41.004Z,66.63
2016-11-22T10:47:21.623Z,68.35
2016-11-22T10:48:02.316Z,67.84
2016-11-22T10:48:42.912Z,67.88
2016-11-22T10:49:23.597Z,68.55
2016-11-22T10:50:04.221Z,67.78
2016-11-22T10:50:44.888Z,67.11
2016-11-22T10:51:25.734Z,66.35
2016-11-22T10:52:06.312Z,66.54
2016-11-22T10:52:46.914Z,66.44
2016-11-22T10:53:27.959Z,67.21
2016-11-22T10:54:08.306Z,68.07
2016-11-22T10:54:49.873Z,68.07
2016-11-22T10:55:30.433Z,68.45
2016-11-22T10:56:11.090Z,67.4
2016-11-22T10:56:51.704Z,68.35
2016-11-22T10:57:32.345Z,67.78
2016-11-22T10:58:12.986Z,68.74
2016-11-22T10:58:53.649Z,68.74
2016-11-22T10:59:34.372Z,67.78
2016-11-22T11:00:15.025Z,68.07
2016-11-22T11:00:55.593Z,68.07
2016-11-22T11:01:36.213Z,68.64
2016-11-22T11:02:16.904Z,67.84
2016-11-22T11:02:57.765Z,68.16
2016-11-22T11:03:38.394Z,68.07
2016-11-22T11:04:18.988Z,67.4
2016-11-22T11:04:59.639Z,67.4
2016-11-22T11:05:40.323Z,67.3
2016-11-22T11:06:20.969Z,67.88
2016-11-22T11:07:01.669Z,66.92
2016-11-22T11:07:42.428Z,67.3
2016-11-22T11:08:23.085Z,67.49
2016-11-22T11:09:03.692Z,67.4
2016-11-22T11:09:45.321Z,67.59
2016-11-22T11:10:25.960Z,68.26
2016-11-22T11:11:07.436Z,67.49
2016-11-22T11:11:47.330Z,67.11
2016-11-22T11:12:28.021Z,66.44
2016-11-22T11:13:08.704Z,66.54
2016-11-22T11:13:49.376Z,66.92
2016-11-22T11:14:30.019Z,66.44
2016-11-22T11:15:10.654Z,66.54
2016-11-22T11:15:51.380Z,67.59
2016-11-22T11:16:32.006Z,67.02
2016-11-22T11:17:12.704Z,66.92
2016-11-22T11:17:53.349Z,67.4
2016-11-22T11:18:33.982Z,67.02
2016-11-22T11:19:14.575Z,66.25
2016-11-22T11:19:55.197Z,65.58
2016-11-22T11:20:35.856Z,65.87
2016-11-22T11:21:16.494Z,65.77
2016-11-22T11:21:57.169Z,64.56
2016-11-22T11:22:37.805Z,65.81
2016-11-22T11:23:18.432Z,65.52
2016-11-22T11:23:59.027Z,64.66
2016-11-22T11:24:39.627Z,64.85
2016-11-22T11:25:20.310Z,64.85
2016-11-22T11:26:00.994Z,64.95
2016-11-22T11:26:41.882Z,64.95
2016-11-22T11:27:22.568Z,64.28
2016-11-22T11:28:03.204Z,63.6
2016-11-22T11:28:43.855Z,63.99
2016-11-22T11:29:25.440Z,64.85
2016-11-22T11:30:05.240Z,64.09
2016-11-22T11:30:45.840Z,63.6
2016-11-22T11:31:26.399Z,64.75
2016-11-22T11:32:07.102Z,64.85
2016-11-22T11:32:47.697Z,64.56
2016-11-22T11:33:28.322Z,64.66
2016-11-22T11:34:09.077Z,65.52
2016-11-22T11:34:49.731Z,64.95
2016-11-22T11:35:30.371Z,64.85
2016-11-22T11:36:11.007Z,65.42
2016-11-22T11:36:51.686Z,65.52
2016-11-22T11:37:32.296Z,63.89
2016-11-22T11:38:12.972Z,64.28
2016-11-22T11:38:53.633Z,64.18
2016-11-22T11:39:34.244Z,63.51
2016-11-22T11:40:14.926Z,63.23
2016-11-22T11:40:55.588Z,63.23
2016-11-22T11:41:36.256Z,63.51
2016-11-22T11:42:16.874Z,63.6
2016-11-22T11:42:57.600Z,64.09
2016-11-22T11:43:38.259Z,63.51
2016-11-22T11:44:18.942Z,63.6
2016-11-22T11:44:59.628Z,63.23
2016-11-22T11:45:40.284Z,63.42
2016-11-22T11:46:20.856Z,63.42
2016-11-22T11:47:01.504Z,63.03
2016-11-22T11:47:42.160Z,63.99
2016-11-22T11:48:22.762Z,64.09
2016-11-22T11:49:03.467Z,63.51
2016-11-22T11:49:44.298Z,62.94
2016-11-22T11:50:24.909Z,63.8
2016-11-22T11:51:05.483Z,63.8
2016-11-22T11:51:46.131Z,63.8
2016-11-22T11:52:26.713Z,65.42
2016-11-22T11:53:07.388Z,64.56
2016-11-22T11:53:47.999Z,63.42
2016-11-22T11:54:28.620Z,63.7
2016-11-22T11:55:09.283Z,63.51
2016-11-22T11:55:49.900Z,63.23
2016-11-22T11:56:30.544Z,64.47
2016-11-22T11:57:11.217Z,64.05
2016-11-22T11:57:51.815Z,64.72
2016-11-22T11:58:32.519Z,63.57
2016-11-22T11:59:13.145Z,63.32
2016-11-22T11:59:53.783Z,63.6
2016-11-22T12:00:34.463Z,64.09
2016-11-22T12:01:15.093Z,64.53
2016-11-22T12:01:55.841Z,64.09
2016-11-22T12:02:36.430Z,64.09
2016-11-22T12:03:17.187Z,63.96
2016-11-22T12:03:57.802Z,64.82
2016-11-22T12:04:38.414Z,65.33
2016-11-22T12:05:18.993Z,65.81
2016-11-22T12:05:59.564Z,64.09
2016-11-22T12:06:40.174Z,64.85
2016-11-22T12:07:20.910Z,65.2
2016-11-22T12:08:01.598Z,66.06
2016-11-22T12:08:42.222Z,66.09
2016-11-22T12:09:22.870Z,64.75
2016-11-22T12:10:03.518Z,65.48
2016-11-22T12:10:44.171Z,65.68
2016-11-22T12:11:24.874Z,65.68
2016-11-22T12:12:05.535Z,65.97
2016-11-22T12:12:46.251Z,64.85
2016-11-22T12:13:26.824Z,64.18
2016-11-22T12:14:07.425Z,65.01
2016-11-22T12:14:48.094Z,64.47
2016-11-22T12:15:28.806Z,63.86
2016-11-22T12:16:09.599Z,65.14
2016-11-22T12:16:50.971Z,65.39
2016-11-22T12:17:31.630Z,64.66
2016-11-22T12:18:14.101Z,64.62
2016-11-22T12:18:54.717Z,66.16
2016-11-22T12:19:35.420Z,64.82
2016-11-22T12:20:16.073Z,66.06
2016-11-22T12:20:57.437Z,65.39
2016-11-22T12:21:37.571Z,64.85
2016-11-22T12:22:18.235Z,65.01
2016-11-22T12:22:58.925Z,64.82
2016-11-22T12:23:39.654Z,64.62
2016-11-22T12:24:20.309Z,64.62
2016-11-22T12:25:00.964Z,65.3
2016-11-22T12:25:41.659Z,65.58
2016-11-22T12:26:22.470Z,65.58
2016-11-22T12:27:03.158Z,64.91
2016-11-22T12:27:43.779Z,64.53
2016-11-22T12:28:24.431Z,64.62
2016-11-22T12:29:05.037Z,64.82
2016-11-22T12:29:45.775Z,65.2
2016-11-22T12:30:26.406Z,64.82
2016-11-22T12:31:07.058Z,66.06
2016-11-22T12:31:47.659Z,65.11
2016-11-22T12:32:28.350Z,64.91
2016-11-22T12:33:08.960Z,64.05
2016-11-22T12:33:49.649Z,64.28
2016-11-22T12:34:30.298Z,65.04
2016-11-22T12:35:11.442Z,64.15
2016-11-22T12:35:51.631Z,64.91
2016-11-22T12:36:32.280Z,64.91
2016-11-22T12:37:12.912Z,64.85
2016-11-22T12:37:53.666Z,65.14
2016-11-22T12:38:37.102Z,65.87
2016-11-22T12:39:17.774Z,65.04
2016-11-22T12:39:58.543Z,64.75
2016-11-22T12:40:39.111Z,65.23
2016-11-22T12:41:19.814Z,65.04
2016-11-22T12:42:00.511Z,64.95
2016-11-22T12:42:41.167Z,64.62
2016-11-22T12:43:21.828Z,65.61
2016-11-22T12:44:02.472Z,65.77
2016-11-22T12:44:43.126Z,65.97
2016-11-22T12:45:23.800Z,64.82
2016-11-22T12:46:04.522Z,64.56
2016-11-22T12:46:45.172Z,64.56
2016-11-22T12:47:25.865Z,63.8
2016-11-22T12:48:06.538Z,64.75
2016-11-22T12:48:47.228Z,64.85
2016-11-22T12:49:27.824Z,64.37
2016-11-22T12:50:08.506Z,65.42
2016-11-22T12:50:49.271Z,64.85
2016-11-22T12:51:30.022Z,64.47
2016-11-22T12:52:10.745Z,64.28
2016-11-22T12:52:51.340Z,64.28
2016-11-22T12:53:32.123Z,65.23
2016-11-22T12:54:12.831Z,65.61
2016-11-22T12:54:53.575Z,65.61
2016-11-22T12:55:34.322Z,64.47
2016-11-22T12:57:47.743Z,63.51
2016-11-22T12:58:28.426Z,63.6
2016-11-22T12:59:09.014Z,63.32
2016-11-22T12:59:49.742Z,64.37
2016-11-22T13:00:30.392Z,64.75
2016-11-22T13:01:11.047Z,64.95
2016-11-22T13:01:51.700Z,64.85
2016-11-22T13:02:32.317Z,65.23
2016-11-22T13:03:12.988Z,65.42
2016-11-22T13:03:53.586Z,64.85
2016-11-22T13:04:34.319Z,64.18
2016-11-22T13:05:15.145Z,63.99
2016-11-22T13:05:55.843Z,63.83
2016-11-22T13:06:36.595Z,63.26
2016-11-22T13:07:17.280Z,62.68
2016-11-22T13:07:57.905Z,62.23
2016-11-22T13:08:38.554Z,61.76
2016-11-22T13:09:19.200Z,62.14
2016-11-22T13:09:59.883Z,61.79
2016-11-22T13:10:40.623Z,62.36
2016-11-22T13:11:21.371Z,61.79
2016-11-22T13:12:01.969Z,59.97
2016-11-22T13:12:42.671Z,59.87
2016-11-22T13:13:23.405Z,60.25
2016-11-22T13:14:04.229Z,60.44
2016-11-22T13:14:44.982Z,60.06
2016-11-22T13:15:25.603Z,61.4
2016-11-22T13:16:06.213Z,60.83
2016-11-22T13:16:46.804Z,59.68
2016-11-22T13:17:27.446Z,59.87
2016-11-22T13:18:08.220Z,61.02
2016-11-22T13:18:48.913Z,59.58
2016-11-22T13:19:29.581Z,58.91
2016-11-22T13:20:10.181Z,58.24
2016-11-22T13:20:50.933Z,57.76
2016-11-22T13:21:31.527Z,59.11
2016-11-22T13:22:12.135Z,58.72
2016-11-22T13:22:52.947Z,58.62
2016-11-22T13:23:33.539Z,59.01
2016-11-22T13:24:14.188Z,58.72
2016-11-22T13:24:55.552Z,58.72
2016-11-22T13:25:36.254Z,58.59
2016-11-22T13:26:16.995Z,58.69
2016-11-22T13:26:57.640Z,58.88
2016-11-22T13:27:38.415Z,58.98
2016-11-22T13:28:19.131Z,58.98
2016-11-22T13:28:59.963Z,59.84
2016-11-22T13:29:40.593Z,59.55
2016-11-22T13:30:21.345Z,58.88
2016-11-22T13:31:02.133Z,59.65
2016-11-22T13:31:42.759Z,58.79
2016-11-22T13:32:23.417Z,60.03
2016-11-22T13:33:04.256Z,58.59
2016-11-22T13:33:44.992Z,58.22
2016-11-22T13:34:25.705Z,59.36
2016-11-22T13:35:06.391Z,59.55
2016-11-22T13:35:47.142Z,59.27
2016-11-22T13:36:27.956Z,60.51
2016-11-22T13:37:08.588Z,59.45
2016-11-22T13:37:49.459Z,58.72
2016-11-22T13:38:30.187Z,58.79
2016-11-22T13:39:10.955Z,58.88
2016-11-22T13:39:51.743Z,58.79
2016-11-22T13:40:32.529Z,58.88
2016-11-22T13:41:13.415Z,59.55
2016-11-22T13:41:54.075Z,59.45
2016-11-22T13:42:34.692Z,59.94
2016-11-22T13:43:15.411Z,60.03
2016-11-22T13:43:56.165Z,61.37
2016-11-22T13:44:36.895Z,59.84
2016-11-22T13:45:17.652Z,59.81
2016-11-22T13:45:58.375Z,60.8
2016-11-22T13:46:39.165Z,60.67
2016-11-22T13:47:19.966Z,60.67
2016-11-22T13:48:00.671Z,60.51
2016-11-22T13:48:41.313Z,60.22
2016-11-22T13:49:22.095Z,59.62
2016-11-22T13:50:03.840Z,60.67
2016-11-22T13:50:43.609Z,60.77
2016-11-22T13:51:24.361Z,61.34
2016-11-22T13:52:05.086Z,61.54
2016-11-22T13:52:45.776Z,61.34
2016-11-22T13:53:26.493Z,62.01
2016-11-22T13:54:07.220Z,61.72